Time;durP1;ratioP1;P1;durP2;ratioP2;P2;SDS_P1;SDS_P2;PMS_P1;PMS_P2;Temp;Humidity;BMP_temperature;BMP_pressure;BME280_temperature;BME280_humidity;BME280_pressure;Samples;Min_cycle;Max_cycle;Signal;HPM_P1;HPM_P2
2021/10/16 00:01:44;;;;;;;20.25;19.80;;;;;;;;;;4992335;28;20097;-60
2021/10/16 00:04:10;;;;;;;19.15;18.48;;;;;;;;;;4991555;28;20042;-60
2021/10/16 00:06:37;;;;;;;18.70;18.02;;;;;;;;;;4990051;28;20470;-60
2021/10/16 00:09:04;;;;;;;18.63;18.10;;;;;;;;;;4991309;28;20045;-60
2021/10/16 00:11:31;;;;;;;17.83;17.10;;;;;;;;;;4989982;28;20069;-60
2021/10/16 00:13:57;;;;;;;17.40;17.02;;;;;;;;;;4990532;28;20050;-60
2021/10/16 00:16:24;;;;;;;18.48;17.80;;;;;;;;;;4991261;28;20042;-60
2021/10/16 00:18:51;;;;;;;17.10;16.73;;;;;;;;;;4988974;28;20038;-60
2021/10/16 00:21:18;;;;;;;19.77;19.27;;;;;;;;;;4989980;28;20038;-60
2021/10/16 00:23:46;;;;;;;17.25;16.80;;;;;;;;;;4990100;28;20058;-60
2021/10/16 00:26:14;;;;;;;17.42;17.15;;;;;;;;;;4985664;28;20129;-60
2021/10/16 00:28:40;;;;;;;19.60;19.20;;;;;;;;;;4984950;28;20121;-60
2021/10/16 00:31:07;;;;;;;17.48;17.25;;;;;;;;;;4991387;28;20050;-60
2021/10/16 00:33:34;;;;;;;17.17;16.88;;;;;;;;;;4991515;28;20038;-60
2021/10/16 00:36:01;;;;;;;16.10;15.80;;;;;;;;;;4990260;28;20069;-60
2021/10/16 00:38:28;;;;;;;18.73;18.42;;;;;;;;;;4988302;28;20109;-60
2021/10/16 00:40:55;;;;;;;18.17;17.83;;;;;;;;;;4990081;28;20603;-60
2021/10/16 00:43:21;;;;;;;18.08;17.77;;;;;;;;;;4991284;28;20108;-60
2021/10/16 00:45:48;;;;;;;20.05;19.55;;;;;;;;;;4988866;28;20491;-60
2021/10/16 00:48:15;;;;;;;18.85;18.45;;;;;;;;;;4990283;28;20117;-60
2021/10/16 00:50:41;;;;;;;19.48;19.08;;;;;;;;;;4991020;28;20138;-60
2021/10/16 00:53:08;;;;;;;17.27;17.08;;;;;;;;;;4990941;28;20093;-60
2021/10/16 00:55:35;;;;;;;17.30;16.88;;;;;;;;;;4988626;28;20118;-60
2021/10/16 00:58:01;;;;;;;19.77;18.88;;;;;;;;;;4988600;28;20105;-60
2021/10/16 01:00:28;;;;;;;18.05;17.52;;;;;;;;;;4991181;28;20446;-60
2021/10/16 01:02:56;;;;;;;20.05;19.25;;;;;;;;;;4988726;28;20142;-60
2021/10/16 01:05:22;;;;;;;18.73;18.23;;;;;;;;;;4990977;28;20066;-60
2021/10/16 01:07:49;;;;;;;19.35;19.05;;;;;;;;;;4988794;28;20042;-60
2021/10/16 01:10:16;;;;;;;20.50;19.55;;;;;;;;;;4988159;28;20038;-60
2021/10/16 01:12:43;;;;;;;17.20;17.00;;;;;;;;;;4990221;28;20511;-60
2021/10/16 01:15:12;;;;;;;17.85;17.65;;;;;;;;;;4988590;28;20034;-60
2021/10/16 01:17:40;;;;;;;18.65;18.17;;;;;;;;;;4973989;28;20047;-60
2021/10/16 01:20:08;;;;;;;17.63;17.33;;;;;;;;;;4988826;28;20129;-60
2021/10/16 01:22:38;;;;;;;18.63;18.23;;;;;;;;;;4990436;28;20035;-60
2021/10/16 01:25:08;;;;;;;17.67;17.30;;;;;;;;;;4989931;28;20046;-60
2021/10/16 01:27:36;;;;;;;16.92;16.63;;;;;;;;;;4988067;28;20046;-59
2021/10/16 01:30:04;;;;;;;17.35;17.05;;;;;;;;;;4988658;28;20089;-60
2021/10/16 01:32:30;;;;;;;18.52;18.23;;;;;;;;;;4988217;28;20038;-60
2021/10/16 01:34:57;;;;;;;19.23;18.80;;;;;;;;;;4990200;28;20408;-60
2021/10/16 01:37:24;;;;;;;17.25;16.95;;;;;;;;;;4990559;28;20110;-60
2021/10/16 01:39:51;;;;;;;18.75;18.45;;;;;;;;;;4987598;28;20367;-60
2021/10/16 01:42:17;;;;;;;17.00;16.70;;;;;;;;;;4989507;28;20034;-60
2021/10/16 01:44:44;;;;;;;17.42;17.17;;;;;;;;;;4989243;28;20061;-59
2021/10/16 01:47:11;;;;;;;18.90;18.45;;;;;;;;;;4987298;28;20031;-60
2021/10/16 01:49:37;;;;;;;18.15;17.50;;;;;;;;;;4989980;28;20034;-60
2021/10/16 01:52:04;;;;;;;14.85;14.65;;;;;;;;;;4988334;28;20034;-60
2021/10/16 01:54:32;;;;;;;19.58;18.98;;;;;;;;;;4989116;28;20062;-60
2021/10/16 01:56:58;;;;;;;16.30;16.10;;;;;;;;;;4989495;28;20503;-60
2021/10/16 01:59:26;;;;;;;19.90;19.25;;;;;;;;;;4989242;28;20093;-60
2021/10/16 02:02:08;;;;;;;17.08;16.85;;;;;;;;;;4987657;28;20046;-60
2021/10/16 02:04:35;;;;;;;20.08;19.75;;;;;;;;;;4989568;28;20446;-60
2021/10/16 02:07:02;;;;;;;17.80;17.38;;;;;;;;;;4987450;28;20086;-60
2021/10/16 02:09:28;;;;;;;19.25;18.95;;;;;;;;;;4989841;28;20057;-60
2021/10/16 02:11:55;;;;;;;18.65;18.35;;;;;;;;;;4987615;28;20073;-60
2021/10/16 02:14:22;;;;;;;19.15;18.85;;;;;;;;;;4989123;28;20428;-60
2021/10/16 02:16:48;;;;;;;20.77;20.38;;;;;;;;;;4988816;28;20042;-60
2021/10/16 02:19:19;;;;;;;16.90;16.60;;;;;;;;;;4987672;28;20055;-60
2021/10/16 02:21:46;;;;;;;16.15;15.95;;;;;;;;;;4989674;28;20042;-60
2021/10/16 02:24:13;;;;;;;18.73;18.42;;;;;;;;;;4989097;28;20053;-60
2021/10/16 02:26:40;;;;;;;19.33;18.83;;;;;;;;;;4988395;28;20445;-60
2021/10/16 02:29:07;;;;;;;18.10;17.77;;;;;;;;;;4989961;28;20069;-60
2021/10/16 02:31:33;;;;;;;19.10;18.73;;;;;;;;;;4987248;28;20057;-59
2021/10/16 02:34:00;;;;;;;17.63;17.33;;;;;;;;;;4988629;28;20482;-60
2021/10/16 02:36:27;;;;;;;18.52;17.75;;;;;;;;;;4988040;28;20585;-60
2021/10/16 02:38:53;;;;;;;16.63;16.38;;;;;;;;;;4987900;28;20042;-60
2021/10/16 02:41:20;;;;;;;17.35;17.05;;;;;;;;;;4988397;28;20042;-59
2021/10/16 02:43:47;;;;;;;18.80;18.40;;;;;;;;;;4990939;28;20077;-60
2021/10/16 02:46:13;;;;;;;17.23;16.90;;;;;;;;;;4993493;28;20663;-60
2021/10/16 02:48:40;;;;;;;15.73;15.20;;;;;;;;;;4991261;28;20043;-60
2021/10/16 02:51:07;;;;;;;16.98;16.65;;;;;;;;;;4995145;28;20126;-60
2021/10/16 02:53:37;;;;;;;16.50;16.30;;;;;;;;;;4993038;28;20050;-60
2021/10/16 02:56:03;;;;;;;15.95;15.70;;;;;;;;;;4989418;28;20416;-60
2021/10/16 02:58:30;;;;;;;18.67;18.23;;;;;;;;;;4992940;28;20030;-60
2021/10/16 03:00:57;;;;;;;17.98;17.67;;;;;;;;;;4990829;28;20150;-60
2021/10/16 03:03:24;;;;;;;16.83;16.52;;;;;;;;;;4983153;28;20054;-60
2021/10/16 03:05:50;;;;;;;16.63;15.82;;;;;;;;;;4991501;28;20534;-60
2021/10/16 03:08:17;;;;;;;16.10;15.82;;;;;;;;;;4990070;28;20070;-59
2021/10/16 03:10:44;;;;;;;16.38;16.02;;;;;;;;;;4993597;28;20073;-60
2021/10/16 03:13:10;;;;;;;17.25;17.05;;;;;;;;;;4993437;28;20096;-60
2021/10/16 03:15:37;;;;;;;17.38;16.95;;;;;;;;;;4991358;28;20089;-59
2021/10/16 03:18:04;;;;;;;13.30;12.95;;;;;;;;;;4991077;28;20066;-60
2021/10/16 03:20:31;;;;;;;13.68;13.23;;;;;;;;;;4991566;28;20434;-60
2021/10/16 03:22:57;;;;;;;15.77;15.55;;;;;;;;;;4975650;28;20123;-60
2021/10/16 03:25:24;;;;;;;17.15;16.80;;;;;;;;;;4993454;28;20097;-59
2021/10/16 03:27:51;;;;;;;14.73;14.32;;;;;;;;;;4990568;28;20053;-60
2021/10/16 03:30:18;;;;;;;11.43;10.88;;;;;;;;;;4993571;28;20391;-60
2021/10/16 03:32:44;;;;;;;14.73;14.55;;;;;;;;;;4992076;28;20596;-60
2021/10/16 03:35:11;;;;;;;18.05;17.75;;;;;;;;;;4992007;28;20593;-60
2021/10/16 03:37:38;;;;;;;14.88;14.30;;;;;;;;;;4990898;28;20085;-60
2021/10/16 03:40:06;;;;;;;17.20;16.80;;;;;;;;;;4991621;28;20105;-60
2021/10/16 03:42:32;;;;;;;18.98;18.48;;;;;;;;;;4992108;28;20058;-60
2021/10/16 03:45:01;;;;;;;16.63;16.25;;;;;;;;;;4991196;28;20121;-60
2021/10/16 03:47:27;;;;;;;13.20;12.90;;;;;;;;;;4981651;28;20074;-59
2021/10/16 03:49:54;;;;;;;14.50;14.25;;;;;;;;;;4991899;28;20046;-60
2021/10/16 03:52:21;;;;;;;15.52;15.27;;;;;;;;;;4990834;28;20030;-60
2021/10/16 03:54:48;;;;;;;16.02;15.43;;;;;;;;;;4991126;28;20388;-60
2021/10/16 03:57:14;;;;;;;16.02;15.82;;;;;;;;;;4989912;28;20553;-60
2021/10/16 03:59:43;;;;;;;16.05;15.77;;;;;;;;;;4990266;28;20062;-60
2021/10/16 04:02:10;;;;;;;15.60;15.40;;;;;;;;;;4991268;28;20116;-60
2021/10/16 04:04:37;;;;;;;14.45;14.25;;;;;;;;;;4990258;28;20105;-60
2021/10/16 04:07:04;;;;;;;15.38;15.07;;;;;;;;;;4990888;28;20066;-60
2021/10/16 04:09:30;;;;;;;12.30;12.15;;;;;;;;;;4991829;28;20096;-60
2021/10/16 04:11:57;;;;;;;12.63;12.25;;;;;;;;;;4992272;28;20798;-60
2021/10/16 04:14:24;;;;;;;9.40;9.30;;;;;;;;;;4989432;28;20174;-59
2021/10/16 04:16:51;;;;;;;10.38;10.20;;;;;;;;;;4984061;28;20046;-60
2021/10/16 04:19:18;;;;;;;11.48;11.27;;;;;;;;;;4989837;28;20517;-60
2021/10/16 04:21:45;;;;;;;12.15;12.05;;;;;;;;;;4988942;28;20042;-60
2021/10/16 04:24:11;;;;;;;13.77;13.45;;;;;;;;;;4990165;28;20487;-60
2021/10/16 04:26:38;;;;;;;13.35;13.05;;;;;;;;;;4991094;28;20543;-60
2021/10/16 04:29:05;;;;;;;13.68;13.55;;;;;;;;;;4985972;28;20559;-60
2021/10/16 04:31:31;;;;;;;14.82;14.50;;;;;;;;;;4984800;28;20089;-59
2021/10/16 04:33:59;;;;;;;16.83;16.58;;;;;;;;;;4991878;28;20093;-60
2021/10/16 04:36:26;;;;;;;15.55;14.80;;;;;;;;;;4989975;28;20498;-60
2021/10/16 04:38:53;;;;;;;14.25;14.07;;;;;;;;;;4990808;28;20069;-60
2021/10/16 04:41:19;;;;;;;15.05;14.77;;;;;;;;;;4988950;28;20073;-60
2021/10/16 04:43:46;;;;;;;16.17;15.77;;;;;;;;;;4985758;28;20054;-60
2021/10/16 04:46:13;;;;;;;12.15;11.95;;;;;;;;;;4990675;28;20034;-60
2021/10/16 04:48:43;;;;;;;14.32;13.70;;;;;;;;;;4989453;28;20078;-59
2021/10/16 04:51:11;;;;;;;12.25;12.15;;;;;;;;;;4991064;28;20042;-60
2021/10/16 04:53:38;;;;;;;10.07;9.73;;;;;;;;;;4986547;28;20039;-60
2021/10/16 04:56:05;;;;;;;12.02;11.93;;;;;;;;;;4988071;28;20043;-60
2021/10/16 04:58:32;;;;;;;14.75;14.55;;;;;;;;;;4991609;28;20049;-60
2021/10/16 05:00:59;;;;;;;13.75;13.55;;;;;;;;;;4982165;28;20105;-60
2021/10/16 05:03:26;;;;;;;14.27;14.07;;;;;;;;;;4990771;28;20063;-60
2021/10/16 05:05:53;;;;;;;13.93;13.73;;;;;;;;;;4972462;28;20125;-60
2021/10/16 05:08:21;;;;;;;12.50;12.30;;;;;;;;;;4989702;28;20046;-60
2021/10/16 05:10:48;;;;;;;11.88;11.60;;;;;;;;;;4989125;28;20039;-59
2021/10/16 05:13:15;;;;;;;14.75;14.30;;;;;;;;;;4971597;28;20042;-59
2021/10/16 05:15:43;;;;;;;16.35;15.82;;;;;;;;;;5021598;28;20491;-59
2021/10/16 05:18:10;;;;;;;16.48;15.82;;;;;;;;;;4985005;28;20357;-59
2021/10/16 05:20:36;;;;;;;17.13;16.00;;;;;;;;;;4990292;28;20046;-60
2021/10/16 05:23:03;;;;;;;13.48;12.98;;;;;;;;;;4989968;28;20057;-59
2021/10/16 05:25:30;;;;;;;18.55;16.95;;;;;;;;;;4990742;28;20125;-60
2021/10/16 05:27:56;;;;;;;10.93;10.32;;;;;;;;;;4989490;28;20121;-60
2021/10/16 05:30:23;;;;;;;8.80;8.13;;;;;;;;;;4989127;28;20034;-60
2021/10/16 05:32:50;;;;;;;9.07;8.18;;;;;;;;;;4988384;28;20069;-59
2021/10/16 05:35:17;;;;;;;8.30;7.75;;;;;;;;;;4986609;28;20109;-59
2021/10/16 05:37:44;;;;;;;8.27;7.85;;;;;;;;;;4987326;28;20046;-60
2021/10/16 05:40:10;;;;;;;14.40;13.07;;;;;;;;;;4989255;28;20129;-59
2021/10/16 05:42:37;;;;;;;9.75;9.32;;;;;;;;;;4990301;28;20109;-45
2021/10/16 05:45:05;;;;;;;11.75;10.95;;;;;;;;;;4988222;28;20050;-45
2021/10/16 05:47:32;;;;;;;8.63;8.32;;;;;;;;;;4983202;28;20114;-45
2021/10/16 05:49:58;;;;;;;7.47;7.38;;;;;;;;;;4988913;28;20038;-44
2021/10/16 05:52:26;;;;;;;14.43;14.18;;;;;;;;;;4988836;28;20049;-44
2021/10/16 05:54:52;;;;;;;18.33;17.50;;;;;;;;;;4988554;28;20045;-43
2021/10/16 05:57:19;;;;;;;24.98;23.05;;;;;;;;;;4988510;28;20034;-45
2021/10/16 05:59:46;;;;;;;26.83;24.90;;;;;;;;;;4990112;28;20038;-43
2021/10/16 06:02:12;;;;;;;28.00;25.60;;;;;;;;;;4987858;28;20070;-44
2021/10/16 06:04:39;;;;;;;26.10;23.80;;;;;;;;;;4988358;28;20494;-43
2021/10/16 06:07:06;;;;;;;23.63;22.02;;;;;;;;;;4989108;28;20043;-43
2021/10/16 06:09:33;;;;;;;16.83;15.73;;;;;;;;;;4987564;28;20446;-46
2021/10/16 06:11:59;;;;;;;16.13;15.20;;;;;;;;;;4989933;28;20066;-46
2021/10/16 06:14:26;;;;;;;16.70;15.80;;;;;;;;;;4988808;28;20034;-44
2021/10/16 06:16:53;;;;;;;13.32;12.50;;;;;;;;;;4990467;28;20057;-44
2021/10/16 06:19:20;;;;;;;9.88;9.38;;;;;;;;;;4991938;28;20129;-48
2021/10/16 06:21:47;;;;;;;9.95;9.45;;;;;;;;;;4991901;28;20597;-45
2021/10/16 06:24:14;;;;;;;7.78;7.47;;;;;;;;;;4993618;28;20046;-47
2021/10/16 06:26:41;;;;;;;2.88;1.98;;;;;;;;;;4992384;28;20058;-44
2021/10/16 06:29:07;;;;;;;6.63;6.32;;;;;;;;;;4991712;28;20443;-44
2021/10/16 06:31:34;;;;;;;13.77;13.25;;;;;;;;;;4990246;28;20386;-44
2021/10/16 06:34:01;;;;;;;13.40;13.05;;;;;;;;;;4987571;28;20062;-44
2021/10/16 06:36:27;;;;;;;15.00;14.70;;;;;;;;;;4987700;28;20035;-45
2021/10/16 06:38:54;;;;;;;14.52;13.93;;;;;;;;;;4992687;28;20042;-45
2021/10/16 06:41:21;;;;;;;19.17;17.92;;;;;;;;;;4988831;28;20070;-43
2021/10/16 06:43:48;;;;;;;14.85;14.38;;;;;;;;;;4992864;28;20069;-47
2021/10/16 06:46:14;;;;;;;16.58;15.68;;;;;;;;;;4990790;28;20502;-44
2021/10/16 06:48:41;;;;;;;15.25;14.55;;;;;;;;;;4986363;28;20125;-43
2021/10/16 06:51:08;;;;;;;12.82;12.23;;;;;;;;;;4993113;28;20038;-44
2021/10/16 06:53:35;;;;;;;8.95;8.63;;;;;;;;;;4992644;28;20038;-45
2021/10/16 06:56:02;;;;;;;6.57;6.18;;;;;;;;;;4993146;28;20126;-45
2021/10/16 06:58:29;;;;;;;5.10;4.88;;;;;;;;;;4991865;28;20489;-43
2021/10/16 07:00:55;;;;;;;4.57;4.32;;;;;;;;;;4993514;28;20062;-43
2021/10/16 07:03:22;;;;;;;4.30;4.03;;;;;;;;;;4989040;28;20136;-48
2021/10/16 07:05:49;;;;;;;5.80;5.53;;;;;;;;;;4981010;28;20089;-44
2021/10/16 07:08:16;;;;;;;6.13;5.72;;;;;;;;;;4994231;28;20066;-44
2021/10/16 07:10:43;;;;;;;8.00;7.25;;;;;;;;;;4987663;28;20396;-45
2021/10/16 07:13:10;;;;;;;5.65;5.35;;;;;;;;;;4980593;28;20492;-45
2021/10/16 07:15:37;;;;;;;6.03;5.78;;;;;;;;;;4990680;28;20042;-46
2021/10/16 07:18:04;;;;;;;6.95;6.30;;;;;;;;;;4984943;28;20412;-43
2021/10/16 07:20:31;;;;;;;5.85;5.65;;;;;;;;;;4992670;28;20101;-44
2021/10/16 07:22:57;;;;;;;6.53;6.13;;;;;;;;;;4991744;28;20042;-43
2021/10/16 07:25:24;;;;;;;7.47;6.78;;;;;;;;;;4993257;28;20039;-44
2021/10/16 07:27:51;;;;;;;7.18;6.72;;;;;;;;;;4992169;28;20125;-44
2021/10/16 07:30:19;;;;;;;6.55;6.07;;;;;;;;;;4986378;28;20046;-46
2021/10/16 07:32:46;;;;;;;6.40;6.10;;;;;;;;;;4991626;28;20049;-45
2021/10/16 07:35:14;;;;;;;7.43;6.70;;;;;;;;;;4990352;28;20038;-44
2021/10/16 07:37:41;;;;;;;4.97;4.55;;;;;;;;;;4992112;28;20104;-47
2021/10/16 07:40:08;;;;;;;4.95;4.57;;;;;;;;;;4991842;28;20050;-45
2021/10/16 07:42:34;;;;;;;5.95;5.75;;;;;;;;;;4989634;28;20518;-46
2021/10/16 07:45:01;;;;;;;6.57;6.05;;;;;;;;;;4991774;28;20085;-45
2021/10/16 07:47:28;;;;;;;6.78;6.43;;;;;;;;;;4989772;28;20410;-45
2021/10/16 07:49:55;;;;;;;6.75;6.30;;;;;;;;;;4991834;28;20462;-45
2021/10/16 07:52:22;;;;;;;8.38;7.97;;;;;;;;;;4991142;28;20089;-44
2021/10/16 07:54:49;;;;;;;7.38;6.97;;;;;;;;;;4991444;28;20042;-48
2021/10/16 07:57:16;;;;;;;7.22;6.72;;;;;;;;;;4992198;28;20046;-45
2021/10/16 07:59:43;;;;;;;5.55;5.20;;;;;;;;;;4990884;28;20470;-45
2021/10/16 08:02:09;;;;;;;5.22;4.93;;;;;;;;;;4986140;28;20038;-45
2021/10/16 08:04:36;;;;;;;5.72;5.22;;;;;;;;;;4993067;28;20109;-46
2021/10/16 08:07:05;;;;;;;4.30;4.10;;;;;;;;;;4988526;28;20050;-44
2021/10/16 08:09:32;;;;;;;6.32;5.93;;;;;;;;;;4990346;28;20093;-45
2021/10/16 08:11:59;;;;;;;5.93;5.63;;;;;;;;;;4987589;28;20095;-46
2021/10/16 08:14:26;;;;;;;9.73;6.47;;;;;;;;;;4992292;28;20031;-47
2021/10/16 08:16:52;;;;;;;7.55;7.22;;;;;;;;;;4986628;28;20447;-47
2021/10/16 08:19:19;;;;;;;7.88;7.32;;;;;;;;;;4988593;28;20031;-44
2021/10/16 08:21:46;;;;;;;6.40;6.00;;;;;;;;;;4989141;28;20046;-46
2021/10/16 08:24:13;;;;;;;7.50;7.00;;;;;;;;;;4990461;28;20088;-45
2021/10/16 08:26:39;;;;;;;6.38;5.90;;;;;;;;;;4989809;28;20066;-45
2021/10/16 08:29:06;;;;;;;6.40;6.15;;;;;;;;;;4990318;28;20046;-47
2021/10/16 08:31:33;;;;;;;7.20;6.78;;;;;;;;;;4988831;28;20093;-43
2021/10/16 08:34:00;;;;;;;6.45;6.15;;;;;;;;;;4990516;28;20687;-45
2021/10/16 08:36:26;;;;;;;7.03;6.55;;;;;;;;;;4982954;28;20031;-46
2021/10/16 08:38:53;;;;;;;6.95;6.47;;;;;;;;;;4982795;28;20097;-46
2021/10/16 08:41:20;;;;;;;7.05;6.43;;;;;;;;;;4990996;28;20046;-45
2021/10/16 08:43:46;;;;;;;7.55;6.70;;;;;;;;;;4989036;28;20050;-45
2021/10/16 08:46:14;;;;;;;11.38;6.82;;;;;;;;;;4991675;28;20057;-44
2021/10/16 08:48:41;;;;;;;9.30;6.85;;;;;;;;;;4990720;28;20050;-45
2021/10/16 08:51:08;;;;;;;5.75;5.32;;;;;;;;;;4988477;28;20518;-45
2021/10/16 08:53:35;;;;;;;7.32;6.75;;;;;;;;;;4990307;28;20070;-44
2021/10/16 08:56:05;;;;;;;6.20;5.80;;;;;;;;;;4989824;28;20096;-44
2021/10/16 08:58:33;;;;;;;6.10;5.60;;;;;;;;;;4990435;28;20117;-44
2021/10/16 09:01:00;;;;;;;6.47;6.10;;;;;;;;;;4992140;28;20088;-43
2021/10/16 09:03:32;;;;;;;6.43;6.10;;;;;;;;;;4986509;28;20034;-45
2021/10/16 09:06:19;;;;;;;6.43;5.93;;;;;;;;;;4985227;28;20128;-44
2021/10/16 09:09:00;;;;;;;5.60;5.40;;;;;;;;;;4990481;28;20050;-48
2021/10/16 09:11:35;;;;;;;5.40;4.85;;;;;;;;;;4989755;28;20074;-45
2021/10/16 09:14:02;;;;;;;7.13;6.60;;;;;;;;;;4989928;28;20048;-47
2021/10/16 09:16:42;;;;;;;13.27;11.60;;;;;;;;;;4989629;28;20438;-45
2021/10/16 09:19:11;;;;;;;5.82;5.45;;;;;;;;;;4988811;28;20037;-46
2021/10/16 09:21:39;;;;;;;4.90;4.63;;;;;;;;;;4990645;28;20043;-47
2021/10/16 09:24:08;;;;;;;5.43;5.05;;;;;;;;;;4989792;28;20074;-45
2021/10/16 09:26:37;;;;;;;5.55;5.35;;;;;;;;;;4990528;28;20140;-44
2021/10/16 09:29:05;;;;;;;6.05;4.00;;;;;;;;;;4984681;28;20078;-44
2021/10/16 09:31:36;;;;;;;3.78;3.58;;;;;;;;;;4982506;28;20042;-43
2021/10/16 09:34:03;;;;;;;3.80;3.55;;;;;;;;;;4986982;28;20073;-43
2021/10/16 09:36:30;;;;;;;3.75;3.20;;;;;;;;;;4988079;28;20058;-45
2021/10/16 09:38:57;;;;;;;4.15;3.85;;;;;;;;;;4987338;28;20038;-44
2021/10/16 09:41:25;;;;;;;4.43;4.22;;;;;;;;;;4988540;28;20104;-46
2021/10/16 09:43:52;;;;;;;5.70;5.22;;;;;;;;;;4984881;28;20062;-44
2021/10/16 09:46:19;;;;;;;5.15;4.88;;;;;;;;;;4990191;28;20617;-44
2021/10/16 09:48:46;;;;;;;3.85;3.65;;;;;;;;;;4989508;28;20042;-43
2021/10/16 09:51:17;;;;;;;11.88;11.13;;;;;;;;;;4985279;28;20038;-44
2021/10/16 09:53:48;;;;;;;4.60;4.32;;;;;;;;;;4988942;28;20042;-43
2021/10/16 09:56:14;;;;;;;3.67;3.47;;;;;;;;;;4986025;28;20050;-44
2021/10/16 09:58:42;;;;;;;5.68;5.47;;;;;;;;;;4992369;28;20089;-44
2021/10/16 10:01:09;;;;;;;4.65;4.55;;;;;;;;;;4986728;28;20042;-45
2021/10/16 10:03:40;;;;;;;4.20;4.10;;;;;;;;;;4980298;28;20046;-45
2021/10/16 10:06:08;;;;;;;3.67;3.38;;;;;;;;;;4982797;28;20558;-46
2021/10/16 10:08:36;;;;;;;5.43;4.53;;;;;;;;;;4983378;28;20113;-45
2021/10/16 10:11:04;;;;;;;3.60;3.50;;;;;;;;;;5012276;28;20051;-45
2021/10/16 10:13:34;;;;;;;3.08;2.97;;;;;;;;;;4989789;28;20125;-44
2021/10/16 10:16:01;;;;;;;3.55;3.17;;;;;;;;;;4976760;28;20034;-44
2021/10/16 10:21:13;;;;;;;3.15;3.03;;;;;;;;;;4989286;28;20081;-46
2021/10/16 10:23:58;;;;;;;3.42;3.25;;;;;;;;;;4983430;28;20054;-44
2021/10/16 10:26:29;;;;;;;3.03;2.83;;;;;;;;;;4995505;28;20160;-44
2021/10/16 10:28:56;;;;;;;2.72;2.63;;;;;;;;;;4981484;28;20074;-45
2021/10/16 10:31:50;;;;;;;3.13;3.03;;;;;;;;;;4987125;28;20042;-45
2021/10/16 10:34:31;;;;;;;2.08;2.00;;;;;;;;;;4986970;28;20121;-46
2021/10/16 10:36:59;;;;;;;2.38;2.28;;;;;;;;;;4983170;28;20100;-45
2021/10/16 10:39:32;;;;;;;3.20;2.90;;;;;;;;;;4988781;28;20042;-44
2021/10/16 10:42:22;;;;;;;3.13;2.83;;;;;;;;;;4987792;28;20097;-45
2021/10/16 10:44:56;;;;;;;2.65;2.53;;;;;;;;;;4987922;28;20054;-43
2021/10/16 10:47:34;;;;;;;3.05;2.95;;;;;;;;;;4986682;28;20038;-44
2021/10/16 10:50:04;;;;;;;2.10;1.98;;;;;;;;;;4986709;28;20511;-44
2021/10/16 10:52:49;;;;;;;2.22;2.13;;;;;;;;;;4987769;28;20035;-44
2021/10/16 10:55:16;;;;;;;1.83;1.73;;;;;;;;;;4987869;28;20121;-46
2021/10/16 10:57:46;;;;;;;1.77;1.75;;;;;;;;;;4985778;28;20050;-44
2021/10/16 11:00:14;;;;;;;2.05;1.95;;;;;;;;;;4982462;28;20065;-46
2021/10/16 11:02:41;;;;;;;2.45;2.35;;;;;;;;;;4985525;28;20081;-45
2021/10/16 11:05:35;;;;;;;1.60;1.50;;;;;;;;;;4986961;28;20101;-46
2021/10/16 11:08:12;;;;;;;1.63;1.52;;;;;;;;;;4992060;28;20042;-47
2021/10/16 11:10:40;;;;;;;2.63;2.42;;;;;;;;;;4989453;28;20081;-44
2021/10/16 11:13:15;;;;;;;2.25;1.60;;;;;;;;;;4992438;28;20062;-47
2021/10/16 11:15:43;;;;;;;2.88;1.70;;;;;;;;;;4992077;28;20065;-45
2021/10/16 11:18:14;;;;;;;1.60;1.50;;;;;;;;;;4990787;28;20069;-47
2021/10/16 11:20:41;;;;;;;1.42;1.42;;;;;;;;;;4992372;28;20435;-45
2021/10/16 11:23:16;;;;;;;1.30;1.30;;;;;;;;;;4991598;28;20039;-44
2021/10/16 11:25:54;;;;;;;2.05;1.40;;;;;;;;;;4992252;28;20046;-47
2021/10/16 11:28:21;;;;;;;1.40;1.38;;;;;;;;;;4991303;28;20038;-44
2021/10/16 11:30:48;;;;;;;1.88;1.25;;;;;;;;;;4990276;28;20046;-44
2021/10/16 11:33:16;;;;;;;1.25;1.15;;;;;;;;;;4990144;28;20126;-44
2021/10/16 11:35:44;;;;;;;1.10;1.10;;;;;;;;;;4990277;28;20166;-47
2021/10/16 11:38:13;;;;;;;2.83;2.03;;;;;;;;;;4990682;28;20074;-45
2021/10/16 11:40:40;;;;;;;1.40;1.30;;;;;;;;;;4991232;28;20100;-45
2021/10/16 11:43:12;;;;;;;1.40;1.40;;;;;;;;;;4990081;28;20402;-43
2021/10/16 11:45:39;;;;;;;1.38;1.30;;;;;;;;;;4977750;28;20043;-45
2021/10/16 11:48:07;;;;;;;1.98;1.88;;;;;;;;;;4992053;28;20141;-45
2021/10/16 11:50:36;;;;;;;4.35;1.75;;;;;;;;;;4991174;28;20042;-45
2021/10/16 11:53:12;;;;;;;2.50;1.10;;;;;;;;;;4990465;28;20130;-44
2021/10/16 11:55:40;;;;;;;1.30;1.30;;;;;;;;;;4991185;28;20047;-44
2021/10/16 11:58:13;;;;;;;1.80;1.70;;;;;;;;;;4993012;28;20054;-43
2021/10/16 12:00:41;;;;;;;2.10;1.30;;;;;;;;;;4991690;28;20039;-45
2021/10/16 12:03:15;;;;;;;1.50;1.40;;;;;;;;;;4988291;28;20046;-45
2021/10/16 12:05:43;;;;;;;1.90;1.80;;;;;;;;;;4990752;28;20093;-48
2021/10/16 12:08:11;;;;;;;1.88;1.50;;;;;;;;;;4992412;28;20073;-44
2021/10/16 12:10:37;;;;;;;2.70;1.38;;;;;;;;;;4989279;28;20057;-45
2021/10/16 12:13:11;;;;;;;1.52;1.30;;;;;;;;;;4982819;28;20159;-44
2021/10/16 12:15:40;;;;;;;1.10;1.10;;;;;;;;;;4985732;28;20043;-44
2021/10/16 12:18:16;;;;;;;1.67;1.60;;;;;;;;;;4981030;28;20716;-44
2021/10/16 12:20:53;;;;;;;2.20;2.10;;;;;;;;;;4989944;28;20089;-45
2021/10/16 12:23:20;;;;;;;1.45;1.35;;;;;;;;;;4991881;28;20054;-44
2021/10/16 12:25:47;;;;;;;2.50;2.30;;;;;;;;;;4986775;28;20498;-44
2021/10/16 12:28:15;;;;;;;2.38;1.80;;;;;;;;;;4985702;28;20050;-45
2021/10/16 12:31:17;;;;;;;2.65;2.40;;;;;;;;;;4984394;28;20034;-44
2021/10/16 12:34:06;;;;;;;1.92;1.58;;;;;;;;;;4967497;28;20051;-44
2021/10/16 12:36:34;;;;;;;3.53;1.65;;;;;;;;;;4960220;28;20138;-44
2021/10/16 12:39:03;;;;;;;2.13;2.03;;;;;;;;;;4959375;28;20083;-44
2021/10/16 12:41:33;;;;;;;2.28;1.92;;;;;;;;;;4967660;28;20499;-44
2021/10/16 12:44:18;;;;;;;1.50;1.50;;;;;;;;;;4968302;28;20050;-45
2021/10/16 12:46:46;;;;;;;1.60;1.08;;;;;;;;;;4961447;28;20096;-46
2021/10/16 12:49:26;;;;;;;1.30;1.30;;;;;;;;;;4966747;28;20089;-45
2021/10/16 12:51:53;;;;;;;1.67;1.60;;;;;;;;;;4969382;28;20043;-44
2021/10/16 12:54:32;;;;;;;1.08;1.05;;;;;;;;;;4966012;28;20086;-44
2021/10/16 12:57:06;;;;;;;1.00;1.00;;;;;;;;;;4965936;28;20115;-46
2021/10/16 12:59:33;;;;;;;1.98;1.40;;;;;;;;;;4965201;28;20039;-46
2021/10/16 13:02:00;;;;;;;2.72;1.10;;;;;;;;;;4952862;28;20054;-44
2021/10/16 13:04:27;;;;;;;1.17;1.17;;;;;;;;;;4967820;28;20062;-44
2021/10/16 13:06:54;;;;;;;3.33;1.10;;;;;;;;;;4969784;28;20085;-46
2021/10/16 13:09:21;;;;;;;1.10;1.10;;;;;;;;;;4990923;28;20050;-44
2021/10/16 13:11:48;;;;;;;1.00;1.00;;;;;;;;;;4987553;28;20112;-44
2021/10/16 13:14:15;;;;;;;2.90;1.10;;;;;;;;;;4979590;28;20526;-45
2021/10/16 13:16:41;;;;;;;1.10;1.10;;;;;;;;;;4990803;28;20038;-45
2021/10/16 13:19:08;;;;;;;0.90;0.90;;;;;;;;;;4989921;28;20074;-45
2021/10/16 13:21:35;;;;;;;0.85;0.85;;;;;;;;;;4990872;28;20047;-44
2021/10/16 13:24:02;;;;;;;1.15;1.02;;;;;;;;;;4989826;28;20545;-45
2021/10/16 13:26:29;;;;;;;1.10;1.10;;;;;;;;;;4982991;28;20150;-44
2021/10/16 13:28:55;;;;;;;1.77;1.67;;;;;;;;;;4989723;28;20046;-44
2021/10/16 13:31:22;;;;;;;0.80;0.80;;;;;;;;;;4987621;28;20069;-44
2021/10/16 13:33:49;;;;;;;0.90;0.90;;;;;;;;;;4990443;28;20053;-46
2021/10/16 13:36:16;;;;;;;1.92;1.05;;;;;;;;;;4987076;28;20105;-45
2021/10/16 13:38:42;;;;;;;1.20;0.95;;;;;;;;;;4988938;28;20045;-45
2021/10/16 13:41:09;;;;;;;0.95;0.95;;;;;;;;;;4990088;28;20081;-47
2021/10/16 13:43:36;;;;;;;0.95;0.95;;;;;;;;;;4989475;28;20050;-46
2021/10/16 13:46:03;;;;;;;1.10;1.00;;;;;;;;;;4989832;28;20038;-44
2021/10/16 13:48:29;;;;;;;0.95;0.95;;;;;;;;;;5018585;28;20137;-47
2021/10/16 13:50:57;;;;;;;1.00;1.00;;;;;;;;;;4989759;28;20048;-46
2021/10/16 13:53:24;;;;;;;1.58;1.00;;;;;;;;;;4990058;28;20117;-45
2021/10/16 13:55:51;;;;;;;1.45;1.00;;;;;;;;;;4990348;28;20089;-45
2021/10/16 13:58:18;;;;;;;2.55;1.00;;;;;;;;;;4989896;28;20074;-44
2021/10/16 14:00:44;;;;;;;1.15;1.15;;;;;;;;;;4989272;28;20034;-47
2021/10/16 14:03:11;;;;;;;0.90;0.90;;;;;;;;;;4988698;28;20038;-45
2021/10/16 14:05:38;;;;;;;0.90;0.90;;;;;;;;;;4989671;28;20043;-45
2021/10/16 14:08:05;;;;;;;2.70;1.98;;;;;;;;;;4989761;28;20104;-47
2021/10/16 14:10:32;;;;;;;1.65;1.20;;;;;;;;;;4989046;28;20038;-44
2021/10/16 14:12:58;;;;;;;2.35;1.33;;;;;;;;;;4990214;28;20035;-44
2021/10/16 14:15:25;;;;;;;2.35;1.00;;;;;;;;;;4989217;28;20117;-44
2021/10/16 14:17:52;;;;;;;1.15;1.15;;;;;;;;;;4986704;28;20043;-45
2021/10/16 14:20:19;;;;;;;2.08;1.40;;;;;;;;;;4988116;28;20070;-45
2021/10/16 14:22:45;;;;;;;1.20;1.20;;;;;;;;;;4988143;28;20050;-44
2021/10/16 14:25:12;;;;;;;1.60;1.10;;;;;;;;;;4988366;28;20046;-46
2021/10/16 14:27:41;;;;;;;1.50;1.20;;;;;;;;;;4988196;28;20085;-45
2021/10/16 14:30:08;;;;;;;1.20;1.10;;;;;;;;;;4989936;28;20431;-46
2021/10/16 14:32:38;;;;;;;2.63;1.40;;;;;;;;;;4986503;28;20054;-47
2021/10/16 14:35:05;;;;;;;1.20;1.20;;;;;;;;;;4988411;28;20518;-46
2021/10/16 14:37:32;;;;;;;1.40;1.30;;;;;;;;;;4989441;28;20073;-44
2021/10/16 14:39:59;;;;;;;1.60;1.05;;;;;;;;;;4992484;28;20471;-45